Skip Navigation LinksHome page > Weather > Current weather Skip Navigation Links

Current Weather

Chicago O'Hare Intl, Chicago

For information only: do not use for flight planning or navigation.
Latest weather
Observation time Tuesday, August 4, 2015 8:51 PM CDT
Local time Tuesday, August 4, 2015 9:18 PM CDT
Flight conditions Visual Meteorological Conditions
Winds
Wind direction North (350°)
Wind speed 3 mph
Visibility 10 mi.
Sky condition
Ceiling 25,000 ft. broken clouds
Cloud layer few clouds 6,500 ft.
Cloud layer few clouds 21,000 ft.
Cloud layer broken clouds 25,000 ft.
Temperature 74°F
Dewpoint 53°F
Altimeter 30.01 in.Hg
Derived measurements
Relative humidity 48%
Density altitude 1726 ft.
Sea-level pressure 29.99 in.Hg
Remarks
Automated weather observing station with precipitation discriminator.
METAR KORD 050151Z 35003KT 10SM FEW065 FEW210 BKN250 23/12 A3001 RMK AO2 SLP157 T02330117

Settings

Location code

InnerDrive.Weather 4.0.5567.0 Release CLR 4.0.30319.34014
Copyright ©2015 Inner Drive Technology. All rights reserved. Portions Copyright ©1986-2015 David Braverman.

Find weather

Site navigation


Skip Navigation Links

Place info

Page info

PayPal - The safer, easier way to pay online!

Return home.

Copyright ©2015 Inner Drive Technology. Purveyors of fine, hand-crafted computer software. Page printed 2015-08-05T02:18:18 UTC.